sensor_id;sensor_type;location;lat;lon;timestamp;temperature;humidity
3406;DHT22;10008;48.682;9.016;2024-03-22T00:01:53;8.50;99.90
3406;DHT22;10008;48.682;9.016;2024-03-22T00:04:19;8.50;99.90
3406;DHT22;10008;48.682;9.016;2024-03-22T00:06:47;8.50;99.90
3406;DHT22;10008;48.682;9.016;2024-03-22T00:09:14;8.50;99.90
3406;DHT22;10008;48.682;9.016;2024-03-22T00:11:40;8.40;99.90
3406;DHT22;10008;48.682;9.016;2024-03-22T00:14:07;8.40;99.90
3406;DHT22;10008;48.682;9.016;2024-03-22T00:16:33;8.40;99.90
3406;DHT22;10008;48.682;9.016;2024-03-22T00:18:59;8.40;99.90
3406;DHT22;10008;48.682;9.016;2024-03-22T00:21:24;8.30;99.90
3406;DHT22;10008;48.682;9.016;2024-03-22T00:23:50;8.30;99.90
3406;DHT22;10008;48.682;9.016;2024-03-22T00:26:16;8.20;99.90
3406;DHT22;10008;48.682;9.016;2024-03-22T00:28:42;8.10;99.90
3406;DHT22;10008;48.682;9.016;2024-03-22T00:31:08;8.10;99.90
3406;DHT22;10008;48.682;9.016;2024-03-22T00:33:34;7.90;99.90
3406;DHT22;10008;48.682;9.016;2024-03-22T00:36:00;7.90;99.90
3406;DHT22;10008;48.682;9.016;2024-03-22T00:38:26;7.90;99.90
3406;DHT22;10008;48.682;9.016;2024-03-22T00:40:52;7.90;99.90
3406;DHT22;10008;48.682;9.016;2024-03-22T00:43:19;7.80;99.90
3406;DHT22;10008;48.682;9.016;2024-03-22T00:45:44;7.90;99.90
3406;DHT22;10008;48.682;9.016;2024-03-22T00:48:10;7.90;99.90
3406;DHT22;10008;48.682;9.016;2024-03-22T00:50:36;7.90;99.90
3406;DHT22;10008;48.682;9.016;2024-03-22T00:53:01;7.80;99.90
3406;DHT22;10008;48.682;9.016;2024-03-22T00:55:29;7.70;99.90
3406;DHT22;10008;48.682;9.016;2024-03-22T00:57:54;7.60;99.90
3406;DHT22;10008;48.682;9.016;2024-03-22T01:00:20;7.70;99.90
3406;DHT22;10008;48.682;9.016;2024-03-22T01:02:46;7.60;99.90
3406;DHT22;10008;48.682;9.016;2024-03-22T01:05:12;7.50;99.90
3406;DHT22;10008;48.682;9.016;2024-03-22T01:07:38;7.50;99.90
3406;DHT22;10008;48.682;9.016;2024-03-22T01:10:07;7.50;99.90
3406;DHT22;10008;48.682;9.016;2024-03-22T01:12:33;7.30;99.90
3406;DHT22;10008;48.682;9.016;2024-03-22T01:14:58;7.20;99.90
3406;DHT22;10008;48.682;9.016;2024-03-22T01:17:24;7.30;99.90
3406;DHT22;10008;48.682;9.016;2024-03-22T01:19:51;7.30;99.90
3406;DHT22;10008;48.682;9.016;2024-03-22T01:22:17;7.30;99.90
3406;DHT22;10008;48.682;9.016;2024-03-22T01:24:44;7.30;99.90
3406;DHT22;10008;48.682;9.016;2024-03-22T01:27:10;7.20;99.90
3406;DHT22;10008;48.682;9.016;2024-03-22T01:29:35;7.20;99.90
3406;DHT22;10008;48.682;9.016;2024-03-22T01:32:02;7.20;99.90
3406;DHT22;10008;48.682;9.016;2024-03-22T01:34:28;7.30;99.90
3406;DHT22;10008;48.682;9.016;2024-03-22T01:36:54;7.20;99.90
3406;DHT22;10008;48.682;9.016;2024-03-22T01:39:21;7.10;99.90
3406;DHT22;10008;48.682;9.016;2024-03-22T01:41:50;7.10;99.90
3406;DHT22;10008;48.682;9.016;2024-03-22T01:44:16;7.20;99.90
3406;DHT22;10008;48.682;9.016;2024-03-22T01:46:44;7.10;99.90
3406;DHT22;10008;48.682;9.016;2024-03-22T01:49:12;7.00;99.90
3406;DHT22;10008;48.682;9.016;2024-03-22T01:51:39;7.10;99.90
3406;DHT22;10008;48.682;9.016;2024-03-22T01:54:08;7.10;99.90
3406;DHT22;10008;48.682;9.016;2024-03-22T01:56:36;7.10;99.90
3406;DHT22;10008;48.682;9.016;2024-03-22T01:59:03;7.10;99.90
3406;DHT22;10008;48.682;9.016;2024-03-22T02:01:29;7.10;99.90
3406;DHT22;10008;48.682;9.016;2024-03-22T02:03:55;7.20;99.90
3406;DHT22;10008;48.682;9.016;2024-03-22T02:06:21;7.10;99.90
3406;DHT22;10008;48.682;9.016;2024-03-22T02:08:47;7.00;99.90
3406;DHT22;10008;48.682;9.016;2024-03-22T02:11:12;6.90;99.90
3406;DHT22;10008;48.682;9.016;2024-03-22T02:13:39;6.70;99.90
3406;DHT22;10008;48.682;9.016;2024-03-22T02:16:05;6.60;99.90
3406;DHT22;10008;48.682;9.016;2024-03-22T02:18:31;6.60;99.90
3406;DHT22;10008;48.682;9.016;2024-03-22T02:20:57;6.50;99.90
3406;DHT22;10008;48.682;9.016;2024-03-22T02:23:43;6.30;99.90
3406;DHT22;10008;48.682;9.016;2024-03-22T02:26:09;6.40;99.90
3406;DHT22;10008;48.682;9.016;2024-03-22T02:28:35;6.40;99.90
3406;DHT22;10008;48.682;9.016;2024-03-22T02:31:02;6.30;99.90
3406;DHT22;10008;48.682;9.016;2024-03-22T02:33:28;6.30;99.90
3406;DHT22;10008;48.682;9.016;2024-03-22T02:35:54;6.20;99.90
3406;DHT22;10008;48.682;9.016;2024-03-22T02:38:20;6.10;99.90
3406;DHT22;10008;48.682;9.016;2024-03-22T02:40:47;6.10;99.90
3406;DHT22;10008;48.682;9.016;2024-03-22T02:43:13;6.00;99.90
3406;DHT22;10008;48.682;9.016;2024-03-22T02:45:39;6.00;99.90
3406;DHT22;10008;48.682;9.016;2024-03-22T02:48:05;6.20;99.90
3406;DHT22;10008;48.682;9.016;2024-03-22T02:50:35;6.30;99.90
3406;DHT22;10008;48.682;9.016;2024-03-22T02:53:01;6.20;99.90
3406;DHT22;10008;48.682;9.016;2024-03-22T02:55:27;6.30;99.90
3406;DHT22;10008;48.682;9.016;2024-03-22T02:57:53;6.30;99.90
3406;DHT22;10008;48.682;9.016;2024-03-22T03:00:19;6.40;99.90
3406;DHT22;10008;48.682;9.016;2024-03-22T03:02:47;6.30;99.90
3406;DHT22;10008;48.682;9.016;2024-03-22T03:05:13;6.10;99.90
3406;DHT22;10008;48.682;9.016;2024-03-22T03:07:39;6.10;99.90
3406;DHT22;10008;48.682;9.016;2024-03-22T03:10:06;6.10;99.90
3406;DHT22;10008;48.682;9.016;2024-03-22T03:12:32;6.20;99.90
3406;DHT22;10008;48.682;9.016;2024-03-22T03:14:58;6.20;99.90
3406;DHT22;10008;48.682;9.016;2024-03-22T03:17:23;6.30;99.90
3406;DHT22;10008;48.682;9.016;2024-03-22T03:19:49;6.50;99.90
3406;DHT22;10008;48.682;9.016;2024-03-22T03:22:15;6.60;99.90
3406;DHT22;10008;48.682;9.016;2024-03-22T03:24:41;6.70;99.90
3406;DHT22;10008;48.682;9.016;2024-03-22T03:27:06;6.70;99.90
3406;DHT22;10008;48.682;9.016;2024-03-22T03:29:32;6.70;99.90
3406;DHT22;10008;48.682;9.016;2024-03-22T03:31:58;6.70;99.90
3406;DHT22;10008;48.682;9.016;2024-03-22T03:34:24;6.80;99.90
3406;DHT22;10008;48.682;9.016;2024-03-22T03:36:49;6.80;99.90
3406;DHT22;10008;48.682;9.016;2024-03-22T03:39:15;6.80;99.90
3406;DHT22;10008;48.682;9.016;2024-03-22T03:41:41;6.70;99.90
3406;DHT22;10008;48.682;9.016;2024-03-22T03:44:07;6.70;99.90
3406;DHT22;10008;48.682;9.016;2024-03-22T03:46:33;6.70;99.90
3406;DHT22;10008;48.682;9.016;2024-03-22T03:48:59;6.70;99.90
3406;DHT22;10008;48.682;9.016;2024-03-22T03:51:24;6.70;99.90
3406;DHT22;10008;48.682;9.016;2024-03-22T03:53:50;6.70;99.90
3406;DHT22;10008;48.682;9.016;2024-03-22T03:56:16;6.70;99.90
3406;DHT22;10008;48.682;9.016;2024-03-22T03:58:41;6.70;99.90
3406;DHT22;10008;48.682;9.016;2024-03-22T04:01:08;6.80;99.90
3406;DHT22;10008;48.682;9.016;2024-03-22T04:03:34;6.90;99.90
3406;DHT22;10008;48.682;9.016;2024-03-22T04:06:01;6.90;99.90
3406;DHT22;10008;48.682;9.016;2024-03-22T04:08:27;6.90;99.90
3406;DHT22;10008;48.682;9.016;2024-03-22T04:10:56;6.90;99.90
3406;DHT22;10008;48.682;9.016;2024-03-22T04:13:23;7.00;99.90
3406;DHT22;10008;48.682;9.016;2024-03-22T04:15:49;7.10;99.90
3406;DHT22;10008;48.682;9.016;2024-03-22T04:18:14;7.10;99.90
3406;DHT22;10008;48.682;9.016;2024-03-22T04:20:40;7.00;99.90
3406;DHT22;10008;48.682;9.016;2024-03-22T04:23:06;7.00;99.90
3406;DHT22;10008;48.682;9.016;2024-03-22T04:25:31;7.00;99.90
3406;DHT22;10008;48.682;9.016;2024-03-22T04:27:57;6.90;99.90
3406;DHT22;10008;48.682;9.016;2024-03-22T04:30:23;7.00;99.90
3406;DHT22;10008;48.682;9.016;2024-03-22T04:32:49;7.00;99.90
3406;DHT22;10008;48.682;9.016;2024-03-22T04:35:14;7.00;99.90
3406;DHT22;10008;48.682;9.016;2024-03-22T04:37:40;6.80;99.90
3406;DHT22;10008;48.682;9.016;2024-03-22T04:40:06;6.80;99.90
3406;DHT22;10008;48.682;9.016;2024-03-22T04:42:32;6.90;99.90
3406;DHT22;10008;48.682;9.016;2024-03-22T04:44:58;7.00;99.90
3406;DHT22;10008;48.682;9.016;2024-03-22T04:47:23;6.90;99.90
3406;DHT22;10008;48.682;9.016;2024-03-22T04:49:49;7.00;99.90
3406;DHT22;10008;48.682;9.016;2024-03-22T04:52:15;7.00;99.90
3406;DHT22;10008;48.682;9.016;2024-03-22T04:54:41;7.00;99.90
3406;DHT22;10008;48.682;9.016;2024-03-22T04:57:06;6.90;99.90
3406;DHT22;10008;48.682;9.016;2024-03-22T04:59:32;7.00;99.90
3406;DHT22;10008;48.682;9.016;2024-03-22T05:01:58;7.20;99.90
3406;DHT22;10008;48.682;9.016;2024-03-22T05:04:23;7.20;99.90
3406;DHT22;10008;48.682;9.016;2024-03-22T05:06:49;7.40;99.90
3406;DHT22;10008;48.682;9.016;2024-03-22T05:09:15;7.50;99.90
3406;DHT22;10008;48.682;9.016;2024-03-22T05:11:41;7.40;99.90
3406;DHT22;10008;48.682;9.016;2024-03-22T05:14:06;7.60;99.90
3406;DHT22;10008;48.682;9.016;2024-03-22T05:16:32;7.50;99.90
3406;DHT22;10008;48.682;9.016;2024-03-22T05:18:58;7.60;99.90
3406;DHT22;10008;48.682;9.016;2024-03-22T05:21:24;7.70;99.90
3406;DHT22;10008;48.682;9.016;2024-03-22T05:23:50;7.70;99.90
3406;DHT22;10008;48.682;9.016;2024-03-22T05:26:16;7.70;99.90
3406;DHT22;10008;48.682;9.016;2024-03-22T05:28:41;7.60;99.90
3406;DHT22;10008;48.682;9.016;2024-03-22T05:31:07;7.40;99.90
3406;DHT22;10008;48.682;9.016;2024-03-22T05:33:33;7.30;99.90
3406;DHT22;10008;48.682;9.016;2024-03-22T05:35:59;7.20;99.90
3406;DHT22;10008;48.682;9.016;2024-03-22T05:38:25;7.10;99.90
3406;DHT22;10008;48.682;9.016;2024-03-22T05:40:50;7.00;99.90
3406;DHT22;10008;48.682;9.016;2024-03-22T05:43:16;7.00;99.90
3406;DHT22;10008;48.682;9.016;2024-03-22T05:45:42;7.20;99.90
3406;DHT22;10008;48.682;9.016;2024-03-22T05:48:07;7.10;99.90
3406;DHT22;10008;48.682;9.016;2024-03-22T05:50:33;7.00;99.90
3406;DHT22;10008;48.682;9.016;2024-03-22T05:52:59;7.00;99.90
3406;DHT22;10008;48.682;9.016;2024-03-22T05:55:25;7.10;99.90
3406;DHT22;10008;48.682;9.016;2024-03-22T05:57:52;7.20;99.90
3406;DHT22;10008;48.682;9.016;2024-03-22T06:00:18;7.20;99.90
3406;DHT22;10008;48.682;9.016;2024-03-22T06:02:44;7.10;99.90
3406;DHT22;10008;48.682;9.016;2024-03-22T06:05:10;7.20;99.90
3406;DHT22;10008;48.682;9.016;2024-03-22T06:07:35;7.40;99.90
3406;DHT22;10008;48.682;9.016;2024-03-22T06:10:08;7.80;99.90
3406;DHT22;10008;48.682;9.016;2024-03-22T06:12:35;7.90;99.90
3406;DHT22;10008;48.682;9.016;2024-03-22T06:15:02;8.00;99.90
3406;DHT22;10008;48.682;9.016;2024-03-22T06:17:32;8.10;99.90
3406;DHT22;10008;48.682;9.016;2024-03-22T06:19:58;8.20;99.90
3406;DHT22;10008;48.682;9.016;2024-03-22T06:22:25;8.50;99.90
3406;DHT22;10008;48.682;9.016;2024-03-22T06:24:50;9.10;99.90
3406;DHT22;10008;48.682;9.016;2024-03-22T06:27:16;9.80;99.90
3406;DHT22;10008;48.682;9.016;2024-03-22T06:29:42;10.10;99.90
3406;DHT22;10008;48.682;9.016;2024-03-22T06:32:08;10.20;99.90
3406;DHT22;10008;48.682;9.016;2024-03-22T06:34:34;10.20;99.90
3406;DHT22;10008;48.682;9.016;2024-03-22T06:37:00;10.40;99.90
3406;DHT22;10008;48.682;9.016;2024-03-22T06:39:26;10.60;99.90
3406;DHT22;10008;48.682;9.016;2024-03-22T06:41:51;10.90;99.90
3406;DHT22;10008;48.682;9.016;2024-03-22T06:44:18;11.70;99.90
3406;DHT22;10008;48.682;9.016;2024-03-22T06:46:44;12.30;99.90
3406;DHT22;10008;48.682;9.016;2024-03-22T06:49:09;12.50;99.90
3406;DHT22;10008;48.682;9.016;2024-03-22T06:51:35;12.70;99.90
3406;DHT22;10008;48.682;9.016;2024-03-22T06:54:02;12.90;99.90
3406;DHT22;10008;48.682;9.016;2024-03-22T06:56:27;13.10;99.90
3406;DHT22;10008;48.682;9.016;2024-03-22T06:58:53;13.30;99.90
3406;DHT22;10008;48.682;9.016;2024-03-22T07:01:19;13.40;99.90
3406;DHT22;10008;48.682;9.016;2024-03-22T07:03:46;13.50;99.90
3406;DHT22;10008;48.682;9.016;2024-03-22T07:06:14;13.60;99.90
3406;DHT22;10008;48.682;9.016;2024-03-22T07:08:40;13.60;99.90
3406;DHT22;10008;48.682;9.016;2024-03-22T07:11:06;13.50;99.90
3406;DHT22;10008;48.682;9.016;2024-03-22T07:13:32;13.60;99.90
3406;DHT22;10008;48.682;9.016;2024-03-22T07:15:58;13.80;99.90
3406;DHT22;10008;48.682;9.016;2024-03-22T07:18:24;13.70;99.90
3406;DHT22;10008;48.682;9.016;2024-03-22T07:20:49;14.00;99.90
3406;DHT22;10008;48.682;9.016;2024-03-22T07:23:15;14.40;99.90
3406;DHT22;10008;48.682;9.016;2024-03-22T07:25:41;15.10;99.90
3406;DHT22;10008;48.682;9.016;2024-03-22T07:28:11;15.70;99.90
3406;DHT22;10008;48.682;9.016;2024-03-22T07:30:37;16.30;99.90
3406;DHT22;10008;48.682;9.016;2024-03-22T07:33:03;16.70;97.90
3406;DHT22;10008;48.682;9.016;2024-03-22T07:35:29;17.00;96.80
3406;DHT22;10008;48.682;9.016;2024-03-22T07:37:56;17.40;95.20
3406;DHT22;10008;48.682;9.016;2024-03-22T07:40:22;18.40;95.20
3406;DHT22;10008;48.682;9.016;2024-03-22T07:42:48;19.20;93.40
3406;DHT22;10008;48.682;9.016;2024-03-22T07:45:13;19.80;90.80
3406;DHT22;10008;48.682;9.016;2024-03-22T07:47:39;20.10;86.70
3406;DHT22;10008;48.682;9.016;2024-03-22T07:50:08;19.30;88.00
3406;DHT22;10008;48.682;9.016;2024-03-22T07:52:34;19.00;89.30
3406;DHT22;10008;48.682;9.016;2024-03-22T07:54:59;19.60;90.90
3406;DHT22;10008;48.682;9.016;2024-03-22T07:57:27;20.40;89.40
3406;DHT22;10008;48.682;9.016;2024-03-22T07:59:53;21.10;85.70
3406;DHT22;10008;48.682;9.016;2024-03-22T08:02:18;21.50;81.00
3406;DHT22;10008;48.682;9.016;2024-03-22T08:04:44;22.00;82.60
3406;DHT22;10008;48.682;9.016;2024-03-22T08:07:10;22.20;79.90
3406;DHT22;10008;48.682;9.016;2024-03-22T08:09:35;21.90;78.60
3406;DHT22;10008;48.682;9.016;2024-03-22T08:12:01;21.20;77.70
3406;DHT22;10008;48.682;9.016;2024-03-22T08:14:27;20.30;82.10
3406;DHT22;10008;48.682;9.016;2024-03-22T08:16:52;20.00;85.00
3406;DHT22;10008;48.682;9.016;2024-03-22T08:19:18;19.90;84.90
3406;DHT22;10008;48.682;9.016;2024-03-22T08:21:44;19.90;85.10
3406;DHT22;10008;48.682;9.016;2024-03-22T08:24:10;20.10;86.20
3406;DHT22;10008;48.682;9.016;2024-03-22T08:26:35;20.40;85.60
3406;DHT22;10008;48.682;9.016;2024-03-22T08:29:01;20.40;84.20
3406;DHT22;10008;48.682;9.016;2024-03-22T08:31:27;20.70;84.90
3406;DHT22;10008;48.682;9.016;2024-03-22T08:33:54;20.60;81.20
3406;DHT22;10008;48.682;9.016;2024-03-22T08:36:22;19.10;80.80
3406;DHT22;10008;48.682;9.016;2024-03-22T08:38:49;19.50;88.10
3406;DHT22;10008;48.682;9.016;2024-03-22T08:41:15;20.50;85.60
3406;DHT22;10008;48.682;9.016;2024-03-22T08:43:40;20.50;82.40
3406;DHT22;10008;48.682;9.016;2024-03-22T08:46:06;20.10;85.40
3406;DHT22;10008;48.682;9.016;2024-03-22T08:48:32;19.50;86.50
3406;DHT22;10008;48.682;9.016;2024-03-22T08:50:59;19.00;85.70
3406;DHT22;10008;48.682;9.016;2024-03-22T08:53:24;18.50;87.30
3406;DHT22;10008;48.682;9.016;2024-03-22T08:55:50;18.10;90.10
3406;DHT22;10008;48.682;9.016;2024-03-22T08:58:17;17.80;90.50
3406;DHT22;10008;48.682;9.016;2024-03-22T09:00:44;17.40;91.10
3406;DHT22;10008;48.682;9.016;2024-03-22T09:03:10;17.00;91.80
3406;DHT22;10008;48.682;9.016;2024-03-22T09:05:35;17.50;92.40
3406;DHT22;10008;48.682;9.016;2024-03-22T09:08:02;18.20;90.10
3406;DHT22;10008;48.682;9.016;2024-03-22T09:10:29;19.10;87.40
3406;DHT22;10008;48.682;9.016;2024-03-22T09:12:55;19.60;84.40
3406;DHT22;10008;48.682;9.016;2024-03-22T09:15:21;20.00;81.80
3406;DHT22;10008;48.682;9.016;2024-03-22T09:17:47;20.50;83.10
3406;DHT22;10008;48.682;9.016;2024-03-22T09:20:13;21.70;78.80
3406;DHT22;10008;48.682;9.016;2024-03-22T09:22:39;22.60;74.20
3406;DHT22;10008;48.682;9.016;2024-03-22T09:25:05;22.90;74.10
3406;DHT22;10008;48.682;9.016;2024-03-22T09:27:32;23.40;72.40
3406;DHT22;10008;48.682;9.016;2024-03-22T09:29:58;23.70;68.20
3406;DHT22;10008;48.682;9.016;2024-03-22T09:32:24;24.00;68.60
3406;DHT22;10008;48.682;9.016;2024-03-22T09:34:52;23.70;66.80
3406;DHT22;10008;48.682;9.016;2024-03-22T09:37:18;23.20;65.10
3406;DHT22;10008;48.682;9.016;2024-03-22T09:39:44;22.60;64.80
3406;DHT22;10008;48.682;9.016;2024-03-22T09:42:16;23.00;69.60
3406;DHT22;10008;48.682;9.016;2024-03-22T09:44:47;23.30;66.70
3406;DHT22;10008;48.682;9.016;2024-03-22T09:47:19;22.10;64.70
3406;DHT22;10008;48.682;9.016;2024-03-22T09:49:48;21.30;69.80
3406;DHT22;10008;48.682;9.016;2024-03-22T09:52:15;21.30;69.60
3406;DHT22;10008;48.682;9.016;2024-03-22T09:54:44;21.70;72.50
3406;DHT22;10008;48.682;9.016;2024-03-22T09:57:14;21.60;70.10
3406;DHT22;10008;48.682;9.016;2024-03-22T09:59:44;22.20;68.60
3406;DHT22;10008;48.682;9.016;2024-03-22T10:02:11;22.50;70.20
3406;DHT22;10008;48.682;9.016;2024-03-22T10:04:41;22.10;66.10
3406;DHT22;10008;48.682;9.016;2024-03-22T10:07:07;22.20;68.80
3406;DHT22;10008;48.682;9.016;2024-03-22T10:09:37;21.90;67.50
3406;DHT22;10008;48.682;9.016;2024-03-22T10:12:03;21.80;70.10
3406;DHT22;10008;48.682;9.016;2024-03-22T10:14:30;21.00;67.70
3406;DHT22;10008;48.682;9.016;2024-03-22T10:16:57;20.60;69.30
3406;DHT22;10008;48.682;9.016;2024-03-22T10:19:24;19.60;72.10
3406;DHT22;10008;48.682;9.016;2024-03-22T10:22:03;19.50;73.40
3406;DHT22;10008;48.682;9.016;2024-03-22T10:24:29;19.70;74.20
3406;DHT22;10008;48.682;9.016;2024-03-22T10:26:56;20.40;76.60
3406;DHT22;10008;48.682;9.016;2024-03-22T10:29:22;20.50;72.00
3406;DHT22;10008;48.682;9.016;2024-03-22T10:31:49;21.60;71.30
3406;DHT22;10008;48.682;9.016;2024-03-22T10:34:16;22.00;69.20
3406;DHT22;10008;48.682;9.016;2024-03-22T10:36:46;23.00;65.90
3406;DHT22;10008;48.682;9.016;2024-03-22T10:39:15;23.80;62.30
3406;DHT22;10008;48.682;9.016;2024-03-22T10:41:41;23.60;62.20
3406;DHT22;10008;48.682;9.016;2024-03-22T10:44:10;24.10;64.10
3406;DHT22;10008;48.682;9.016;2024-03-22T10:46:35;23.80;62.50
3406;DHT22;10008;48.682;9.016;2024-03-22T10:49:02;23.00;67.10
3406;DHT22;10008;48.682;9.016;2024-03-22T10:51:30;22.30;68.00
3406;DHT22;10008;48.682;9.016;2024-03-22T10:53:57;22.30;68.50
3406;DHT22;10008;48.682;9.016;2024-03-22T10:56:24;21.70;67.00
3406;DHT22;10008;48.682;9.016;2024-03-22T10:58:50;21.40;71.50
3406;DHT22;10008;48.682;9.016;2024-03-22T11:01:25;21.40;70.60
3406;DHT22;10008;48.682;9.016;2024-03-22T11:04:04;22.60;69.10
3406;DHT22;10008;48.682;9.016;2024-03-22T11:06:32;23.70;67.90
3406;DHT22;10008;48.682;9.016;2024-03-22T11:09:01;24.20;63.40
3406;DHT22;10008;48.682;9.016;2024-03-22T11:11:29;24.40;62.40
3406;DHT22;10008;48.682;9.016;2024-03-22T11:13:56;24.50;62.70
3406;DHT22;10008;48.682;9.016;2024-03-22T11:16:22;24.20;62.60
3406;DHT22;10008;48.682;9.016;2024-03-22T11:18:48;24.20;63.30
3406;DHT22;10008;48.682;9.016;2024-03-22T11:21:15;24.50;61.20
3406;DHT22;10008;48.682;9.016;2024-03-22T11:23:44;25.00;60.40
3406;DHT22;10008;48.682;9.016;2024-03-22T11:26:11;25.20;58.90
3406;DHT22;10008;48.682;9.016;2024-03-22T11:28:38;24.50;57.40
3406;DHT22;10008;48.682;9.016;2024-03-22T11:31:04;23.60;58.20
3406;DHT22;10008;48.682;9.016;2024-03-22T11:33:30;24.20;61.10
3406;DHT22;10008;48.682;9.016;2024-03-22T11:35:59;25.70;58.70
3406;DHT22;10008;48.682;9.016;2024-03-22T11:38:28;27.00;57.70
3406;DHT22;10008;48.682;9.016;2024-03-22T11:40:57;24.30;56.00
3406;DHT22;10008;48.682;9.016;2024-03-22T11:43:26;24.70;60.20
3406;DHT22;10008;48.682;9.016;2024-03-22T11:45:54;25.50;58.20
3406;DHT22;10008;48.682;9.016;2024-03-22T11:48:20;25.90;54.80
3406;DHT22;10008;48.682;9.016;2024-03-22T11:50:46;26.30;57.70
3406;DHT22;10008;48.682;9.016;2024-03-22T11:53:12;25.90;52.70
3406;DHT22;10008;48.682;9.016;2024-03-22T11:55:37;25.20;52.90
3406;DHT22;10008;48.682;9.016;2024-03-22T11:58:03;23.50;56.90
3406;DHT22;10008;48.682;9.016;2024-03-22T12:00:29;24.20;62.00
3406;DHT22;10008;48.682;9.016;2024-03-22T12:02:55;24.20;60.60
3406;DHT22;10008;48.682;9.016;2024-03-22T12:05:21;23.10;59.10
3406;DHT22;10008;48.682;9.016;2024-03-22T12:07:47;22.40;59.90
3406;DHT22;10008;48.682;9.016;2024-03-22T12:10:12;22.40;60.30
3406;DHT22;10008;48.682;9.016;2024-03-22T12:12:39;22.10;59.80
3406;DHT22;10008;48.682;9.016;2024-03-22T12:15:05;21.90;65.90
3406;DHT22;10008;48.682;9.016;2024-03-22T12:17:31;21.70;64.00
3406;DHT22;10008;48.682;9.016;2024-03-22T12:19:57;21.60;68.50
3406;DHT22;10008;48.682;9.016;2024-03-22T12:22:23;21.90;65.60
3406;DHT22;10008;48.682;9.016;2024-03-22T12:24:51;21.80;61.60
3406;DHT22;10008;48.682;9.016;2024-03-22T12:27:17;22.30;63.70
3406;DHT22;10008;48.682;9.016;2024-03-22T12:29:43;22.70;63.10
3406;DHT22;10008;48.682;9.016;2024-03-22T12:32:09;23.10;63.20
3406;DHT22;10008;48.682;9.016;2024-03-22T12:34:35;22.10;58.30
3406;DHT22;10008;48.682;9.016;2024-03-22T12:37:01;21.80;60.20
3406;DHT22;10008;48.682;9.016;2024-03-22T12:39:28;22.90;61.80
3406;DHT22;10008;48.682;9.016;2024-03-22T12:41:53;23.70;61.20
3406;DHT22;10008;48.682;9.016;2024-03-22T12:44:20;23.70;56.60
3406;DHT22;10008;48.682;9.016;2024-03-22T12:46:46;23.90;57.60
3406;DHT22;10008;48.682;9.016;2024-03-22T12:49:12;24.60;60.50
3406;DHT22;10008;48.682;9.016;2024-03-22T12:51:38;24.50;58.40
3406;DHT22;10008;48.682;9.016;2024-03-22T12:54:04;23.00;55.20
3406;DHT22;10008;48.682;9.016;2024-03-22T12:56:31;22.30;57.40
3406;DHT22;10008;48.682;9.016;2024-03-22T12:58:57;23.10;59.70
3406;DHT22;10008;48.682;9.016;2024-03-22T13:01:23;23.70;61.10
3406;DHT22;10008;48.682;9.016;2024-03-22T13:03:48;23.20;59.00
3406;DHT22;10008;48.682;9.016;2024-03-22T13:06:14;23.70;61.30
3406;DHT22;10008;48.682;9.016;2024-03-22T13:08:40;23.60;60.20
3406;DHT22;10008;48.682;9.016;2024-03-22T13:11:06;23.20;58.50
3406;DHT22;10008;48.682;9.016;2024-03-22T13:13:35;22.70;58.40
3406;DHT22;10008;48.682;9.016;2024-03-22T13:16:01;21.70;63.50
3406;DHT22;10008;48.682;9.016;2024-03-22T13:18:30;21.90;64.90
3406;DHT22;10008;48.682;9.016;2024-03-22T13:20:55;22.00;64.80
3406;DHT22;10008;48.682;9.016;2024-03-22T13:23:21;22.20;65.20
3406;DHT22;10008;48.682;9.016;2024-03-22T13:25:47;21.90;61.50
3406;DHT22;10008;48.682;9.016;2024-03-22T13:28:13;22.10;63.50
3406;DHT22;10008;48.682;9.016;2024-03-22T13:30:38;22.30;65.40
3406;DHT22;10008;48.682;9.016;2024-03-22T13:33:04;22.30;61.40
3406;DHT22;10008;48.682;9.016;2024-03-22T13:35:31;22.30;62.90
3406;DHT22;10008;48.682;9.016;2024-03-22T13:37:58;22.00;59.30
3406;DHT22;10008;48.682;9.016;2024-03-22T13:40:24;22.10;61.30
3406;DHT22;10008;48.682;9.016;2024-03-22T13:42:53;22.60;63.00
3406;DHT22;10008;48.682;9.016;2024-03-22T13:45:19;22.90;58.20
3406;DHT22;10008;48.682;9.016;2024-03-22T13:47:45;23.80;60.70
3406;DHT22;10008;48.682;9.016;2024-03-22T13:50:11;24.10;56.40
3406;DHT22;10008;48.682;9.016;2024-03-22T13:52:37;24.10;54.80
3406;DHT22;10008;48.682;9.016;2024-03-22T13:55:03;24.20;54.60
3406;DHT22;10008;48.682;9.016;2024-03-22T13:57:30;24.90;54.00
3406;DHT22;10008;48.682;9.016;2024-03-22T13:59:57;25.10;53.20
3406;DHT22;10008;48.682;9.016;2024-03-22T14:02:23;26.00;53.90
3406;DHT22;10008;48.682;9.016;2024-03-22T14:04:49;26.20;49.20
3406;DHT22;10008;48.682;9.016;2024-03-22T14:07:14;26.10;51.80
3406;DHT22;10008;48.682;9.016;2024-03-22T14:09:40;26.30;48.30
3406;DHT22;10008;48.682;9.016;2024-03-22T14:12:06;26.90;50.80
3406;DHT22;10008;48.682;9.016;2024-03-22T14:14:32;27.00;49.90
3406;DHT22;10008;48.682;9.016;2024-03-22T14:16:59;26.10;48.30
3406;DHT22;10008;48.682;9.016;2024-03-22T14:19:25;24.70;49.60
3406;DHT22;10008;48.682;9.016;2024-03-22T14:21:50;24.00;50.90
3406;DHT22;10008;48.682;9.016;2024-03-22T14:24:16;23.80;52.30
3406;DHT22;10008;48.682;9.016;2024-03-22T14:26:42;23.40;54.30
3406;DHT22;10008;48.682;9.016;2024-03-22T14:29:17;22.80;53.60
3406;DHT22;10008;48.682;9.016;2024-03-22T14:31:44;22.00;53.40
3406;DHT22;10008;48.682;9.016;2024-03-22T14:34:11;21.50;50.90
3406;DHT22;10008;48.682;9.016;2024-03-22T14:36:37;21.50;51.90
3406;DHT22;10008;48.682;9.016;2024-03-22T14:39:03;21.40;52.70
3406;DHT22;10008;48.682;9.016;2024-03-22T14:41:33;21.20;53.40
3406;DHT22;10008;48.682;9.016;2024-03-22T14:43:59;21.40;49.80
3406;DHT22;10008;48.682;9.016;2024-03-22T14:46:25;21.30;49.80
3406;DHT22;10008;48.682;9.016;2024-03-22T14:48:54;21.20;52.30
3406;DHT22;10008;48.682;9.016;2024-03-22T14:51:20;20.80;49.00
3406;DHT22;10008;48.682;9.016;2024-03-22T14:53:46;20.60;49.90
3406;DHT22;10008;48.682;9.016;2024-03-22T14:56:12;20.30;47.10
3406;DHT22;10008;48.682;9.016;2024-03-22T14:58:38;20.20;51.20
3406;DHT22;10008;48.682;9.016;2024-03-22T15:01:05;20.20;54.60
3406;DHT22;10008;48.682;9.016;2024-03-22T15:03:31;20.00;53.90
3406;DHT22;10008;48.682;9.016;2024-03-22T15:05:58;20.00;52.70
3406;DHT22;10008;48.682;9.016;2024-03-22T15:08:26;19.80;53.00
3406;DHT22;10008;48.682;9.016;2024-03-22T15:10:52;19.90;54.70
3406;DHT22;10008;48.682;9.016;2024-03-22T15:13:18;19.80;53.10
3406;DHT22;10008;48.682;9.016;2024-03-22T15:15:57;19.90;55.40
3406;DHT22;10008;48.682;9.016;2024-03-22T15:18:23;19.70;54.20
3406;DHT22;10008;48.682;9.016;2024-03-22T15:20:50;19.80;56.90
3406;DHT22;10008;48.682;9.016;2024-03-22T15:23:17;19.60;58.60
3406;DHT22;10008;48.682;9.016;2024-03-22T15:25:42;19.50;57.80
3406;DHT22;10008;48.682;9.016;2024-03-22T15:28:12;19.40;57.60
3406;DHT22;10008;48.682;9.016;2024-03-22T15:30:39;19.30;54.10
3406;DHT22;10008;48.682;9.016;2024-03-22T15:33:05;19.00;54.20
3406;DHT22;10008;48.682;9.016;2024-03-22T15:35:34;19.20;54.90
3406;DHT22;10008;48.682;9.016;2024-03-22T15:37:59;19.20;53.10
3406;DHT22;10008;48.682;9.016;2024-03-22T15:40:25;19.20;55.20
3406;DHT22;10008;48.682;9.016;2024-03-22T15:42:51;19.10;56.20
3406;DHT22;10008;48.682;9.016;2024-03-22T15:45:17;19.00;53.50
3406;DHT22;10008;48.682;9.016;2024-03-22T15:47:44;19.00;54.00